West Annville, Pennsylvania
Current Conditions -  °F | °C
As of 10:58 PM on Wednesday 22 Oct 2014 (Local Time) from KMUI Reporting Station
Overcast Overcast  
Wind Chill: 51°   Ceiling: 2100
Heat Index: 51°   Visibility: 10mi
Dew Point: 48°   Wind: 10mph
Humidity: 89%   Direction: 360°N
Pressure: 29.93"   Gusts: 18mph
Location:  40.3819°N, 76.5718°W
Report Text: KMUI 230258Z AUTO 36009G16KT 320V040 10SM OVC021 11/09 A2993 RMK AO2 SLP139 T01060089 58009 $
Loading
Personal Weather Stations






























Interactive Weather Map
Tropical Storm Tracking
New forecast layout! Learn more

10-Day Weather Forecast

Advertisements
Track Severe Weather on mobile